IBE0155 LEMD-SKBO
Flight info
| Callsign | IBE0155 |
|---|---|
| Flight time | N/A |
| Altitude | 36000 |
| Route | BARDI DCT VIS DCT DIRMA/N0487F350 DCT SOPOP/N0488F370 DCT ERPES/M085F360 DCT LENSI DCT 36N030W/M085F380 33N035W 28N040W 22N050W/M085F400 DCT ELJEZ/N0487F400 UN669 MASPA DCT TOROP DCT PBL UP533 KIKAS DCT DOPLO DOPLO5E |
| Aircraft | A359/H-SDE2E3GHIJ3J4J5LM1ORWXY/LB1D1 |
Departure
| Time | N/A |
|---|---|
| Airport | Adolfo Suárez Madrid–Barajas Airport (LEMD) |
Arrival
| Time | 2026-05-01 11:01 |
|---|---|
| Airport | El Dorado International Airport (SKBO) |
| Time | Latitude | Longitude | Altitude | Speed | Heading |
|---|---|---|---|---|---|
| 2026-05-01 08:48 | 13.93859 | -62.31139 | 39954 ft | 461 kts | 234° |
| 2026-05-01 08:48 | 13.89777 | -62.36293 | 39949 ft | 461 kts | 233° |
| 2026-05-01 08:49 | 13.85747 | -62.41372 | 39955 ft | 455 kts | 233° |
| 2026-05-01 08:49 | 13.81777 | -62.46378 | 39957 ft | 454 kts | 233° |
| 2026-05-01 08:50 | 13.77782 | -62.51414 | 39953 ft | 454 kts | 233° |
| 2026-05-01 08:50 | 13.73782 | -62.56455 | 39951 ft | 454 kts | 233° |
| 2026-05-01 08:51 | 13.69787 | -62.61484 | 39949 ft | 454 kts | 233° |
| 2026-05-01 08:51 | 13.65785 | -62.66519 | 39949 ft | 454 kts | 233° |
| 2026-05-01 08:52 | 13.61814 | -62.71513 | 39948 ft | 454 kts | 233° |
| 2026-05-01 08:52 | 13.57814 | -62.76539 | 39949 ft | 454 kts | 233° |
| 2026-05-01 08:53 | 13.53808 | -62.81570 | 39949 ft | 454 kts | 233° |
| 2026-05-01 08:53 | 13.49806 | -62.86593 | 39952 ft | 454 kts | 233° |
| 2026-05-01 08:54 | 13.45799 | -62.91620 | 39950 ft | 454 kts | 233° |
| 2026-05-01 08:54 | 13.41814 | -62.96616 | 39951 ft | 454 kts | 233° |
| 2026-05-01 08:55 | 13.37809 | -63.01634 | 39948 ft | 454 kts | 233° |
| 2026-05-01 08:55 | 13.33804 | -63.06650 | 39949 ft | 454 kts | 233° |
| 2026-05-01 08:56 | 13.29794 | -63.11669 | 39949 ft | 454 kts | 233° |
| 2026-05-01 08:56 | 13.25790 | -63.16677 | 39944 ft | 454 kts | 233° |
| 2026-05-01 08:57 | 13.21808 | -63.21656 | 39947 ft | 454 kts | 233° |
| 2026-05-01 08:57 | 13.17794 | -63.26670 | 39946 ft | 454 kts | 233° |
| 2026-05-01 08:58 | 13.13787 | -63.31674 | 39944 ft | 454 kts | 233° |
| 2026-05-01 08:58 | 13.09776 | -63.36679 | 39944 ft | 454 kts | 233° |
| 2026-05-01 08:59 | 13.05759 | -63.41689 | 39944 ft | 454 kts | 233° |
| 2026-05-01 08:59 | 13.01771 | -63.46661 | 39947 ft | 454 kts | 233° |
| 2026-05-01 09:00 | 12.97751 | -63.51670 | 39947 ft | 455 kts | 233° |
| 2026-05-01 09:00 | 12.93724 | -63.56683 | 39946 ft | 455 kts | 233° |
| 2026-05-01 09:01 | 12.89695 | -63.61698 | 39944 ft | 455 kts | 233° |
| 2026-05-01 09:01 | 12.85811 | -63.66804 | 39944 ft | 453 kts | 237° |
| 2026-05-01 09:02 | 12.82224 | -63.72076 | 39944 ft | 453 kts | 238° |
| 2026-05-01 09:02 | 12.78670 | -63.77403 | 39936 ft | 453 kts | 238° |
| 2026-05-01 09:03 | 12.75097 | -63.82755 | 39938 ft | 455 kts | 238° |
| 2026-05-01 09:03 | 12.71532 | -63.88065 | 39938 ft | 455 kts | 238° |
| 2026-05-01 09:04 | 12.67941 | -63.93404 | 39938 ft | 455 kts | 238° |
| 2026-05-01 09:04 | 12.64343 | -63.98756 | 39938 ft | 455 kts | 238° |
| 2026-05-01 09:05 | 12.60743 | -64.04107 | 39941 ft | 455 kts | 238° |
| 2026-05-01 09:05 | 12.57171 | -64.09416 | 39935 ft | 454 kts | 238° |
| 2026-05-01 09:06 | 12.53586 | -64.14740 | 39938 ft | 453 kts | 238° |
| 2026-05-01 09:06 | 12.50008 | -64.20051 | 39937 ft | 453 kts | 238° |
| 2026-05-01 09:07 | 12.46425 | -64.25366 | 39933 ft | 453 kts | 238° |
| 2026-05-01 09:07 | 12.42864 | -64.30647 | 39933 ft | 453 kts | 238° |
| 2026-05-01 09:08 | 12.39272 | -64.35969 | 39936 ft | 453 kts | 238° |
| 2026-05-01 09:08 | 12.35789 | -64.41337 | 39933 ft | 451 kts | 244° |
| 2026-05-01 09:09 | 12.32822 | -64.46978 | 39930 ft | 450 kts | 244° |
| 2026-05-01 09:09 | 12.29952 | -64.52667 | 39927 ft | 450 kts | 245° |
| 2026-05-01 09:10 | 12.27095 | -64.58369 | 39930 ft | 450 kts | 245° |
| 2026-05-01 09:10 | 12.24252 | -64.64022 | 39930 ft | 450 kts | 245° |
| 2026-05-01 09:11 | 12.21381 | -64.69712 | 39927 ft | 450 kts | 245° |
| 2026-05-01 09:11 | 12.18502 | -64.75410 | 39927 ft | 451 kts | 245° |
| 2026-05-01 09:12 | 12.15618 | -64.81115 | 39927 ft | 451 kts | 245° |
| 2026-05-01 09:12 | 12.12753 | -64.86779 | 39927 ft | 451 kts | 245° |
| 2026-05-01 09:13 | 12.09871 | -64.92472 | 39927 ft | 451 kts | 245° |
| 2026-05-01 09:13 | 12.06977 | -64.98186 | 39931 ft | 451 kts | 245° |
| 2026-05-01 09:14 | 12.04109 | -65.03846 | 39927 ft | 450 kts | 245° |
| 2026-05-01 09:14 | 12.01227 | -65.09531 | 39925 ft | 450 kts | 245° |
| 2026-05-01 09:15 | 11.98348 | -65.15205 | 39925 ft | 449 kts | 245° |
| 2026-05-01 09:15 | 11.95467 | -65.20881 | 39921 ft | 449 kts | 245° |
| 2026-05-01 09:16 | 11.92600 | -65.26525 | 39922 ft | 451 kts | 245° |
| 2026-05-01 09:17 | 11.88260 | -65.35061 | 39919 ft | 451 kts | 245° |
| 2026-05-01 09:17 | 11.83919 | -65.43592 | 39919 ft | 450 kts | 245° |
| 2026-05-01 09:18 | 11.79586 | -65.52101 | 39924 ft | 450 kts | 245° |
| 2026-05-01 09:19 | 11.75249 | -65.60609 | 39919 ft | 450 kts | 245° |
| 2026-05-01 09:20 | 11.70928 | -65.69078 | 39917 ft | 450 kts | 244° |
| 2026-05-01 09:21 | 11.65147 | -65.80397 | 39917 ft | 450 kts | 244° |
| 2026-05-01 09:21 | 11.60809 | -65.88882 | 39917 ft | 449 kts | 244° |
| 2026-05-01 09:22 | 11.55031 | -66.00171 | 39916 ft | 448 kts | 244° |
| 2026-05-01 09:23 | 11.50725 | -66.08578 | 39914 ft | 447 kts | 244° |
| 2026-05-01 09:24 | 11.46402 | -66.17009 | 39914 ft | 447 kts | 244° |
| 2026-05-01 09:25 | 11.40668 | -66.28262 | 39914 ft | 446 kts | 244° |
| 2026-05-01 09:26 | 11.36395 | -66.36656 | 39910 ft | 447 kts | 244° |
| 2026-05-01 09:26 | 11.32574 | -66.44150 | 39909 ft | 447 kts | 244° |
| 2026-05-01 09:27 | 11.28263 | -66.52594 | 39908 ft | 447 kts | 244° |
| 2026-05-01 09:28 | 11.25404 | -66.58193 | 39908 ft | 447 kts | 244° |
| 2026-05-01 09:28 | 11.22533 | -66.63810 | 39903 ft | 447 kts | 244° |
| 2026-05-01 09:29 | 11.18227 | -66.72230 | 39905 ft | 446 kts | 244° |
| 2026-05-01 09:30 | 11.13918 | -66.80650 | 39905 ft | 446 kts | 244° |
| 2026-05-01 09:30 | 11.09629 | -66.89023 | 39898 ft | 446 kts | 244° |
| 2026-05-01 09:31 | 11.06748 | -66.94641 | 39898 ft | 447 kts | 244° |
| 2026-05-01 09:32 | 11.02429 | -67.03062 | 39899 ft | 447 kts | 244° |
| 2026-05-01 09:32 | 10.98124 | -67.11447 | 39900 ft | 447 kts | 244° |
| 2026-05-01 09:33 | 10.95241 | -67.17057 | 39894 ft | 447 kts | 244° |
| 2026-05-01 09:34 | 10.90917 | -67.25468 | 39899 ft | 447 kts | 244° |
| 2026-05-01 09:34 | 10.86594 | -67.33870 | 39897 ft | 446 kts | 244° |
| 2026-05-01 09:35 | 10.82270 | -67.42270 | 39902 ft | 453 kts | 244° |
| 2026-05-01 09:36 | 10.79325 | -67.47986 | 39903 ft | 458 kts | 244° |
| 2026-05-01 09:36 | 10.76357 | -67.53742 | 39900 ft | 458 kts | 244° |
| 2026-05-01 09:37 | 10.73395 | -67.59481 | 39911 ft | 458 kts | 244° |
| 2026-05-01 09:37 | 10.68966 | -67.68060 | 39906 ft | 458 kts | 244° |
| 2026-05-01 09:38 | 10.64518 | -67.76669 | 39906 ft | 458 kts | 244° |
| 2026-05-01 09:39 | 10.60064 | -67.85284 | 39913 ft | 458 kts | 244° |
| 2026-05-01 09:39 | 10.57116 | -67.90981 | 39914 ft | 458 kts | 244° |
| 2026-05-01 09:40 | 10.52659 | -67.99588 | 39917 ft | 458 kts | 244° |
| 2026-05-01 09:41 | 10.49681 | -68.05315 | 39923 ft | 459 kts | 243° |
| 2026-05-01 09:41 | 10.43873 | -68.13085 | 39926 ft | 462 kts | 232° |
| 2026-05-01 09:42 | 10.39619 | -68.17994 | 39924 ft | 463 kts | 231° |
| 2026-05-01 09:43 | 10.31064 | -68.27787 | 39927 ft | 462 kts | 231° |
| 2026-05-01 09:43 | 10.26828 | -68.32664 | 39928 ft | 463 kts | 231° |
| 2026-05-01 09:44 | 10.20446 | -68.40014 | 39938 ft | 462 kts | 231° |
| 2026-05-01 09:45 | 10.16186 | -68.44917 | 39938 ft | 462 kts | 231° |
| 2026-05-01 09:45 | 10.09820 | -68.52237 | 39943 ft | 463 kts | 231° |
| 2026-05-01 09:46 | 10.05558 | -68.57137 | 39942 ft | 463 kts | 231° |
| 2026-05-01 09:46 | 10.01299 | -68.62036 | 39939 ft | 463 kts | 231° |
| 2026-05-01 09:47 | 9.97039 | -68.66946 | 39939 ft | 463 kts | 231° |
| 2026-05-01 09:47 | 9.92799 | -68.71829 | 39930 ft | 463 kts | 231° |
| 2026-05-01 09:48 | 9.88545 | -68.76726 | 39931 ft | 462 kts | 231° |
| 2026-05-01 09:48 | 9.84287 | -68.81628 | 39923 ft | 463 kts | 231° |
| 2026-05-01 09:49 | 9.80023 | -68.86533 | 39917 ft | 464 kts | 231° |
| 2026-05-01 09:49 | 9.75784 | -68.91409 | 39915 ft | 464 kts | 231° |
| 2026-05-01 09:50 | 9.71517 | -68.96313 | 39906 ft | 464 kts | 231° |
| 2026-05-01 09:50 | 9.67243 | -69.01223 | 39908 ft | 464 kts | 231° |
| 2026-05-01 09:51 | 9.62971 | -69.06134 | 39912 ft | 464 kts | 231° |
| 2026-05-01 09:51 | 9.58725 | -69.11017 | 39895 ft | 464 kts | 231° |
| 2026-05-01 09:52 | 9.54453 | -69.15923 | 39906 ft | 464 kts | 231° |
| 2026-05-01 09:52 | 9.50182 | -69.20826 | 39903 ft | 463 kts | 231° |
| 2026-05-01 09:53 | 9.45947 | -69.25688 | 39893 ft | 462 kts | 231° |
| 2026-05-01 09:53 | 9.41687 | -69.30577 | 39908 ft | 462 kts | 231° |
| 2026-05-01 09:54 | 9.37414 | -69.35479 | 39907 ft | 462 kts | 231° |
| 2026-05-01 09:54 | 9.33157 | -69.40360 | 39909 ft | 462 kts | 231° |
| 2026-05-01 09:55 | 9.28901 | -69.45239 | 39908 ft | 462 kts | 231° |
| 2026-05-01 09:55 | 9.24674 | -69.50081 | 39907 ft | 462 kts | 231° |
| 2026-05-01 09:56 | 9.20411 | -69.54965 | 39898 ft | 462 kts | 230° |
| 2026-05-01 09:56 | 9.16154 | -69.59838 | 39898 ft | 462 kts | 230° |
| 2026-05-01 09:57 | 9.11895 | -69.64713 | 39900 ft | 461 kts | 230° |
| 2026-05-01 09:57 | 9.07636 | -69.69584 | 39898 ft | 461 kts | 230° |
| 2026-05-01 09:58 | 9.03382 | -69.74449 | 39896 ft | 461 kts | 230° |
| 2026-05-01 09:58 | 8.99153 | -69.79283 | 39898 ft | 461 kts | 230° |
| 2026-05-01 09:59 | 8.94892 | -69.84152 | 39895 ft | 461 kts | 230° |
| 2026-05-01 09:59 | 8.90625 | -69.89026 | 39895 ft | 462 kts | 230° |
| 2026-05-01 10:00 | 8.86358 | -69.93898 | 39911 ft | 463 kts | 230° |
| 2026-05-01 10:00 | 8.82117 | -69.98738 | 39897 ft | 463 kts | 230° |
| 2026-05-01 10:01 | 8.77844 | -70.03613 | 39894 ft | 463 kts | 230° |
| 2026-05-01 10:01 | 8.73571 | -70.08487 | 39909 ft | 463 kts | 230° |
| 2026-05-01 10:02 | 8.69296 | -70.13360 | 39894 ft | 463 kts | 230° |
| 2026-05-01 10:02 | 8.65020 | -70.18233 | 39895 ft | 463 kts | 230° |
| 2026-05-01 10:03 | 8.60746 | -70.23102 | 39911 ft | 464 kts | 230° |
| 2026-05-01 10:03 | 8.56407 | -70.27899 | 39895 ft | 465 kts | 229° |
| 2026-05-01 10:04 | 8.51996 | -70.32697 | 39898 ft | 466 kts | 229° |
| 2026-05-01 10:04 | 8.47579 | -70.37517 | 39911 ft | 467 kts | 229° |
| 2026-05-01 10:05 | 8.43199 | -70.42314 | 39897 ft | 467 kts | 229° |
| 2026-05-01 10:05 | 8.38796 | -70.47143 | 39898 ft | 467 kts | 229° |
| 2026-05-01 10:06 | 8.34396 | -70.51965 | 39917 ft | 467 kts | 229° |
| 2026-05-01 10:06 | 8.29991 | -70.56791 | 39917 ft | 467 kts | 229° |
| 2026-05-01 10:07 | 8.25579 | -70.61624 | 39922 ft | 468 kts | 229° |
| 2026-05-01 10:07 | 8.21161 | -70.66460 | 39921 ft | 469 kts | 229° |
| 2026-05-01 10:08 | 8.14510 | -70.73737 | 39908 ft | 470 kts | 229° |
| 2026-05-01 10:09 | 8.10095 | -70.78565 | 39927 ft | 470 kts | 229° |
| 2026-05-01 10:09 | 8.05657 | -70.83418 | 39927 ft | 470 kts | 229° |
| 2026-05-01 10:10 | 8.01216 | -70.88272 | 39929 ft | 470 kts | 229° |
| 2026-05-01 10:10 | 7.94564 | -70.95539 | 39925 ft | 472 kts | 229° |
| 2026-05-01 10:11 | 7.90111 | -71.00402 | 39925 ft | 472 kts | 229° |
| 2026-05-01 10:11 | 7.85653 | -71.05268 | 39917 ft | 472 kts | 229° |
| 2026-05-01 10:12 | 7.81949 | -71.09311 | 39917 ft | 472 kts | 229° |
| 2026-05-01 10:13 | 7.74512 | -71.17424 | 39917 ft | 472 kts | 229° |
| 2026-05-01 10:13 | 7.70053 | -71.22286 | 39917 ft | 472 kts | 229° |
| 2026-05-01 10:14 | 7.63368 | -71.29571 | 39928 ft | 472 kts | 229° |
| 2026-05-01 10:14 | 7.58937 | -71.34400 | 39917 ft | 472 kts | 229° |
| 2026-05-01 10:15 | 7.54473 | -71.39261 | 39911 ft | 472 kts | 229° |
| 2026-05-01 10:15 | 7.50759 | -71.43305 | 39914 ft | 473 kts | 229° |
| 2026-05-01 10:16 | 7.46290 | -71.48169 | 39911 ft | 473 kts | 229° |
| 2026-05-01 10:17 | 7.39580 | -71.55470 | 39917 ft | 473 kts | 229° |
| 2026-05-01 10:17 | 7.32890 | -71.62745 | 39917 ft | 473 kts | 229° |
| 2026-05-01 10:18 | 7.26173 | -71.70047 | 39919 ft | 473 kts | 229° |
| 2026-05-01 10:19 | 7.21688 | -71.74920 | 39925 ft | 473 kts | 229° |
| 2026-05-01 10:19 | 7.17208 | -71.79786 | 39928 ft | 474 kts | 229° |
| 2026-05-01 10:20 | 7.10519 | -71.87049 | 39939 ft | 473 kts | 229° |
| 2026-05-01 10:20 | 7.06037 | -71.91914 | 39942 ft | 473 kts | 229° |
| 2026-05-01 10:21 | 6.99417 | -71.99289 | 39924 ft | 472 kts | 233° |
| 2026-05-01 10:22 | 6.93408 | -72.07167 | 39942 ft | 472 kts | 233° |
| 2026-05-01 10:23 | 6.87361 | -72.14961 | 39993 ft | 473 kts | 233° |
| 2026-05-01 10:23 | 6.81272 | -72.22762 | 40013 ft | 472 kts | 233° |
| 2026-05-01 10:24 | 6.73161 | -72.33137 | 40070 ft | 473 kts | 233° |
| 2026-05-01 10:25 | 6.65031 | -72.43529 | 40083 ft | 473 kts | 233° |
| 2026-05-01 10:26 | 6.60963 | -72.48728 | 40083 ft | 473 kts | 233° |
| 2026-05-01 10:27 | 6.52818 | -72.59130 | 40061 ft | 473 kts | 233° |
| 2026-05-01 10:28 | 6.46726 | -72.66906 | 40064 ft | 474 kts | 233° |
| 2026-05-01 10:28 | 6.40594 | -72.74729 | 40039 ft | 474 kts | 233° |
| 2026-05-01 10:29 | 6.34475 | -72.82535 | 40021 ft | 474 kts | 233° |
| 2026-05-01 10:30 | 6.26338 | -72.92906 | 40029 ft | 474 kts | 233° |
| 2026-05-01 10:31 | 6.18160 | -73.03325 | 40050 ft | 475 kts | 233° |
| 2026-05-01 10:32 | 6.12031 | -73.11131 | 40035 ft | 473 kts | 233° |
| 2026-05-01 10:33 | 6.03874 | -73.21513 | 40066 ft | 473 kts | 233° |
| 2026-05-01 10:34 | 5.97783 | -73.29262 | 40085 ft | 472 kts | 233° |
| 2026-05-01 10:34 | 5.93743 | -73.34398 | 40085 ft | 463 kts | 233° |
| 2026-05-01 10:35 | 5.89781 | -73.39435 | 39255 ft | 458 kts | 233° |
| 2026-05-01 10:35 | 5.87804 | -73.41950 | 38534 ft | 460 kts | 233° |
| 2026-05-01 10:35 | 5.85809 | -73.44473 | 37728 ft | 462 kts | 232° |
| 2026-05-01 10:35 | 5.83631 | -73.46820 | 36967 ft | 466 kts | 224° |
| 2026-05-01 10:36 | 5.78485 | -73.50826 | 35551 ft | 470 kts | 219° |
| 2026-05-01 10:36 | 5.75845 | -73.52770 | 34953 ft | 469 kts | 219° |
| 2026-05-01 10:36 | 5.73226 | -73.54702 | 34436 ft | 465 kts | 219° |
| 2026-05-01 10:37 | 5.70623 | -73.56625 | 33885 ft | 463 kts | 219° |
| 2026-05-01 10:37 | 5.65477 | -73.60435 | 32827 ft | 456 kts | 218° |
| 2026-05-01 10:37 | 5.62935 | -73.62318 | 32320 ft | 452 kts | 218° |
| 2026-05-01 10:38 | 5.60412 | -73.64187 | 31806 ft | 448 kts | 217° |
| 2026-05-01 10:38 | 5.57905 | -73.66046 | 31284 ft | 445 kts | 217° |
| 2026-05-01 10:38 | 5.55416 | -73.67890 | 30814 ft | 442 kts | 216° |
| 2026-05-01 10:38 | 5.52947 | -73.69720 | 30291 ft | 440 kts | 216° |
| 2026-05-01 10:39 | 5.50515 | -73.71521 | 29748 ft | 437 kts | 215° |
| 2026-05-01 10:39 | 5.48081 | -73.73324 | 29236 ft | 433 kts | 215° |
| 2026-05-01 10:39 | 5.45660 | -73.75117 | 28794 ft | 428 kts | 215° |
| 2026-05-01 10:39 | 5.43396 | -73.77009 | 28475 ft | 421 kts | 223° |
| 2026-05-01 10:40 | 5.41588 | -73.79292 | 28066 ft | 418 kts | 237° |
| 2026-05-01 10:40 | 5.40351 | -73.81926 | 27645 ft | 417 kts | 248° |
| 2026-05-01 10:40 | 5.39391 | -73.84668 | 27111 ft | 417 kts | 249° |
| 2026-05-01 10:40 | 5.38467 | -73.87424 | 26617 ft | 416 kts | 249° |
| 2026-05-01 10:41 | 5.37540 | -73.90178 | 26125 ft | 414 kts | 249° |
| 2026-05-01 10:41 | 5.36617 | -73.92905 | 25660 ft | 412 kts | 249° |
| 2026-05-01 10:41 | 5.34783 | -73.98289 | 24677 ft | 409 kts | 249° |
| 2026-05-01 10:42 | 5.33864 | -74.00977 | 24249 ft | 407 kts | 249° |
| 2026-05-01 10:42 | 5.32950 | -74.03660 | 23824 ft | 404 kts | 249° |
| 2026-05-01 10:42 | 5.32038 | -74.06325 | 23298 ft | 403 kts | 249° |
| 2026-05-01 10:42 | 5.31130 | -74.08972 | 22738 ft | 400 kts | 249° |
| 2026-05-01 10:43 | 5.30228 | -74.11606 | 22262 ft | 397 kts | 249° |
| 2026-05-01 10:43 | 5.29330 | -74.14222 | 21786 ft | 394 kts | 249° |
| 2026-05-01 10:43 | 5.28443 | -74.16811 | 21331 ft | 391 kts | 249° |
| 2026-05-01 10:43 | 5.27562 | -74.19383 | 20891 ft | 388 kts | 249° |
| 2026-05-01 10:44 | 5.26686 | -74.21939 | 20384 ft | 386 kts | 249° |
| 2026-05-01 10:44 | 5.25818 | -74.24472 | 19948 ft | 383 kts | 249° |
| 2026-05-01 10:44 | 5.24964 | -74.26963 | 19493 ft | 381 kts | 249° |
| 2026-05-01 10:44 | 5.24106 | -74.29465 | 19086 ft | 377 kts | 249° |
| 2026-05-01 10:45 | 5.23461 | -74.31979 | 18768 ft | 366 kts | 263° |
| 2026-05-01 10:45 | 5.23479 | -74.34508 | 18491 ft | 360 kts | 272° |
| 2026-05-01 10:45 | 5.23677 | -74.36990 | 18084 ft | 355 kts | 273° |
| 2026-05-01 10:45 | 5.23887 | -74.39441 | 17771 ft | 350 kts | 273° |
| 2026-05-01 10:46 | 5.24091 | -74.41870 | 17728 ft | 350 kts | 273° |
| 2026-05-01 10:46 | 5.24286 | -74.44302 | 17717 ft | 350 kts | 272° |
| 2026-05-01 10:46 | 5.24155 | -74.46723 | 17725 ft | 346 kts | 255° |
| 2026-05-01 10:46 | 5.23441 | -74.49023 | 17724 ft | 343 kts | 247° |
| 2026-05-01 10:47 | 5.22594 | -74.51268 | 17691 ft | 344 kts | 246° |
| 2026-05-01 10:47 | 5.21744 | -74.53489 | 17686 ft | 344 kts | 246° |
| 2026-05-01 10:47 | 5.20890 | -74.55735 | 17666 ft | 344 kts | 246° |
| 2026-05-01 10:47 | 5.20034 | -74.57984 | 17653 ft | 344 kts | 246° |
| 2026-05-01 10:48 | 5.18892 | -74.60074 | 17649 ft | 339 kts | 229° |
| 2026-05-01 10:48 | 5.17285 | -74.61792 | 17637 ft | 336 kts | 221° |
| 2026-05-01 10:48 | 5.15601 | -74.63380 | 17629 ft | 336 kts | 220° |
| 2026-05-01 10:48 | 5.13885 | -74.64982 | 17624 ft | 337 kts | 220° |
| 2026-05-01 10:49 | 5.12170 | -74.66587 | 17625 ft | 337 kts | 220° |
| 2026-05-01 10:49 | 5.10452 | -74.68204 | 17619 ft | 337 kts | 220° |
| 2026-05-01 10:49 | 5.08704 | -74.69780 | 17609 ft | 336 kts | 215° |
| 2026-05-01 10:49 | 5.06706 | -74.70893 | 17622 ft | 330 kts | 198° |
| 2026-05-01 10:50 | 5.04529 | -74.71635 | 17625 ft | 329 kts | 194° |
| 2026-05-01 10:50 | 5.02339 | -74.72310 | 17632 ft | 329 kts | 194° |
| 2026-05-01 10:50 | 5.00138 | -74.72987 | 17642 ft | 329 kts | 194° |
| 2026-05-01 10:50 | 4.97948 | -74.73562 | 17655 ft | 327 kts | 186° |
| 2026-05-01 10:51 | 4.95700 | -74.73533 | 17626 ft | 321 kts | 166° |
| 2026-05-01 10:51 | 4.93649 | -74.72707 | 17264 ft | 317 kts | 145° |
| 2026-05-01 10:51 | 4.92087 | -74.71182 | 16933 ft | 313 kts | 124° |
| 2026-05-01 10:51 | 4.91187 | -74.69240 | 16632 ft | 313 kts | 105° |
| 2026-05-01 10:52 | 4.91029 | -74.67068 | 16354 ft | 315 kts | 85° |
| 2026-05-01 10:52 | 4.91627 | -74.64947 | 16073 ft | 317 kts | 69° |
| 2026-05-01 10:52 | 4.92478 | -74.62908 | 15802 ft | 314 kts | 73° |
| 2026-05-01 10:52 | 4.92873 | -74.60777 | 15533 ft | 310 kts | 91° |
| 2026-05-01 10:53 | 4.92790 | -74.58651 | 15257 ft | 308 kts | 96° |
| 2026-05-01 10:53 | 4.92603 | -74.56501 | 14981 ft | 307 kts | 97° |
| 2026-05-01 10:53 | 4.92412 | -74.54410 | 14712 ft | 306 kts | 96° |
| 2026-05-01 10:53 | 4.92244 | -74.52547 | 14470 ft | 304 kts | 96° |
| 2026-05-01 10:54 | 4.92059 | -74.50460 | 14298 ft | 295 kts | 96° |
| 2026-05-01 10:54 | 4.91881 | -74.48443 | 14153 ft | 286 kts | 96° |
| 2026-05-01 10:54 | 4.91708 | -74.46471 | 13919 ft | 279 kts | 96° |
| 2026-05-01 10:54 | 4.91540 | -74.44544 | 13676 ft | 276 kts | 96° |
| 2026-05-01 10:55 | 4.91271 | -74.42664 | 13417 ft | 274 kts | 106° |
| 2026-05-01 10:55 | 4.90453 | -74.41011 | 13160 ft | 257 kts | 129° |
| 2026-05-01 10:55 | 4.89216 | -74.39792 | 12935 ft | 243 kts | 139° |
| 2026-05-01 10:55 | 4.87951 | -74.38735 | 12759 ft | 235 kts | 140° |
| 2026-05-01 10:56 | 4.86777 | -74.37627 | 12519 ft | 229 kts | 131° |
| 2026-05-01 10:56 | 4.85778 | -74.36388 | 12251 ft | 227 kts | 128° |
| 2026-05-01 10:56 | 4.84837 | -74.35148 | 12102 ft | 222 kts | 127° |
| 2026-05-01 10:56 | 4.83927 | -74.33942 | 11983 ft | 210 kts | 127° |
| 2026-05-01 10:57 | 4.83073 | -74.32814 | 11956 ft | 198 kts | 127° |
| 2026-05-01 10:57 | 4.82240 | -74.31711 | 11906 ft | 198 kts | 127° |
| 2026-05-01 10:57 | 4.81414 | -74.30621 | 11718 ft | 193 kts | 127° |
| 2026-05-01 10:57 | 4.80616 | -74.29565 | 11488 ft | 190 kts | 127° |
| 2026-05-01 10:58 | 4.79826 | -74.28512 | 11224 ft | 186 kts | 126° |
| 2026-05-01 10:58 | 4.79048 | -74.27474 | 10999 ft | 185 kts | 126° |
| 2026-05-01 10:58 | 4.78282 | -74.26460 | 10777 ft | 184 kts | 127° |
| 2026-05-01 10:58 | 4.77513 | -74.25443 | 10553 ft | 180 kts | 127° |
| 2026-05-01 10:59 | 4.76758 | -74.24440 | 10352 ft | 181 kts | 126° |
| 2026-05-01 10:59 | 4.76019 | -74.23446 | 10043 ft | 174 kts | 125° |
| 2026-05-01 10:59 | 4.75302 | -74.22484 | 9732 ft | 170 kts | 126° |
| 2026-05-01 10:59 | 4.74607 | -74.21571 | 9507 ft | 162 kts | 126° |
| 2026-05-01 11:00 | 4.73926 | -74.20686 | 9291 ft | 157 kts | 126° |
| 2026-05-01 11:00 | 4.73273 | -74.19825 | 9120 ft | 154 kts | 124° |
| 2026-05-01 11:00 | 4.72619 | -74.18959 | 8953 ft | 156 kts | 124° |
| 2026-05-01 11:00 | 4.71958 | -74.18101 | 8731 ft | 159 kts | 123° |
| 2026-05-01 11:01 | 4.71280 | -74.17208 | 8505 ft | 161 kts | 124° |
| 2026-05-01 11:01 | 4.70604 | -74.16316 | 8378 ft | 152 kts | 128° |
| 2026-05-01 11:01 | 4.70102 | -74.15657 | 8375 ft | 85 kts | 128° |
| 2026-05-01 11:01 | 4.69844 | -74.15319 | 8377 ft | 47 kts | 122° |
| 2026-05-01 11:02 | 4.69743 | -74.15142 | 8377 ft | 23 kts | 107° |
| 2026-05-01 11:02 | 4.69717 | -74.15011 | 8379 ft | 16 kts | 99° |
| 2026-05-01 11:02 | 4.69758 | -74.14919 | 8375 ft | 14 kts | 36° |
| 2026-05-01 11:02 | 4.69836 | -74.14861 | 8376 ft | 14 kts | 36° |
| 2026-05-01 11:03 | 4.69910 | -74.14804 | 8376 ft | 13 kts | 38° |
| 2026-05-01 11:03 | 4.69985 | -74.14746 | 8375 ft | 14 kts | 37° |
| 2026-05-01 11:03 | 4.70062 | -74.14688 | 8376 ft | 14 kts | 37° |
| 2026-05-01 11:03 | 4.70141 | -74.14628 | 8375 ft | 14 kts | 37° |
| 2026-05-01 11:04 | 4.70195 | -74.14587 | 8376 ft | 15 kts | 37° |
| 2026-05-01 11:04 | 4.70290 | -74.14516 | 8375 ft | 11 kts | 37° |
| 2026-05-01 11:04 | 4.70351 | -74.14470 | 8375 ft | 9 kts | 36° |
| 2026-05-01 11:04 | 4.70385 | -74.14443 | 8378 ft | 9 kts | 44° |
| 2026-05-01 11:05 | 4.70378 | -74.14383 | 8379 ft | 7 kts | 121° |
| 2026-05-01 11:05 | 4.70358 | -74.14355 | 8377 ft | 8 kts | 127° |
| 2026-05-01 11:05 | 4.70310 | -74.14291 | 8376 ft | 10 kts | 127° |
| 2026-05-01 11:05 | 4.70282 | -74.14254 | 8377 ft | 10 kts | 127° |
| 2026-05-01 11:06 | 4.70230 | -74.14213 | 8377 ft | 9 kts | 179° |
| 2026-05-01 11:06 | 4.70180 | -74.14241 | 8375 ft | 9 kts | 216° |
| 2026-05-01 11:06 | 4.70145 | -74.14262 | 8376 ft | 4 kts | 204° |
| 2026-05-01 11:07 | 4.70110 | -74.14272 | 8377 ft | 0 kts | 197° |
| 2026-05-01 11:07 | 4.70109 | -74.14272 | 8377 ft | 0 kts | 197° |
| 2026-05-01 11:07 | 4.70105 | -74.14273 | 8377 ft | 1 kts | 197° |
| 2026-05-01 11:08 | 4.70102 | -74.14274 | 8377 ft | 0 kts | 197° |